Time;durP1;ratioP1;P1;durP2;ratioP2;P2;SDS_P1;SDS_P2;PMS_P1;PMS_P2;Temp;Humidity;BMP_temperature;BMP_pressure;BME280_temperature;BME280_humidity;BME280_pressure;Samples;Min_cycle;Max_cycle;Signal;HPM_P1;HPM_P2
2023/12/09 00:04:07;;;;;;;226.43;210.68;;;5.40;99.90;;;;;;12508200;28;20062;-79
2023/12/09 00:10:09;;;;;;;219.02;203.10;;;5.40;99.90;;;;;;12507407;28;20062;-79
2023/12/09 00:16:11;;;;;;;220.20;205.38;;;5.40;99.90;;;;;;12501230;28;20054;-79
2023/12/09 00:22:13;;;;;;;222.50;206.50;;;5.50;99.90;;;;;;12427348;28;20476;-80
2023/12/09 00:28:15;;;;;;;223.60;208.10;;;5.50;99.90;;;;;;12427997;28;20039;-79
2023/12/09 00:34:17;;;;;;;197.27;183.38;;;5.50;99.90;;;;;;12490831;28;20051;-79
2023/12/09 00:40:19;;;;;;;207.23;192.32;;;5.50;99.90;;;;;;12513679;28;20050;-80
2023/12/09 00:46:21;;;;;;;197.27;182.85;;;5.50;99.90;;;;;;12440410;28;20045;-79
2023/12/09 00:52:23;;;;;;;200.38;186.27;;;5.50;99.90;;;;;;12481101;28;20184;-80
2023/12/09 00:58:26;;;;;;;205.02;191.05;;;5.50;99.90;;;;;;12437652;28;20140;-79
2023/12/09 01:04:28;;;;;;;200.07;186.15;;;5.60;99.90;;;;;;12492979;28;20046;-79
2023/12/09 01:10:31;;;;;;;197.10;183.10;;;5.60;99.90;;;;;;12625566;28;20084;-82
2023/12/09 01:16:32;;;;;;;195.00;181.02;;;5.60;99.90;;;;;;12659438;28;20054;-79
2023/12/09 01:22:35;;;;;;;207.93;193.70;;;5.60;99.90;;;;;;12660488;28;20046;-81
2023/12/09 01:28:37;;;;;;;210.80;196.38;;;5.50;99.90;;;;;;12664215;28;20047;-79
2023/12/09 01:34:40;;;;;;;194.10;180.18;;;5.50;99.90;;;;;;12648885;28;20052;-78
2023/12/09 01:40:43;;;;;;;193.93;179.63;;;5.60;99.90;;;;;;12661961;28;20123;-79
2023/12/09 01:46:46;;;;;;;188.40;175.25;;;5.60;99.90;;;;;;12648789;28;20525;-80
2023/12/09 01:52:48;;;;;;;192.70;179.52;;;5.60;99.90;;;;;;12653075;28;20052;-79
2023/12/09 01:58:51;;;;;;;192.77;179.30;;;5.50;99.90;;;;;;12659020;28;20064;-80
2023/12/09 02:04:55;;;;;;;191.98;178.60;;;5.50;99.90;;;;;;12653624;28;20048;-79
2023/12/09 02:11:17;;;;;;;181.75;168.38;;;5.50;99.90;;;;;;12458105;28;20065;-78
2023/12/09 02:17:22;;;;;;;181.02;168.15;;;5.60;99.90;;;;;;12395469;28;20141;-79
2023/12/09 02:23:24;;;;;;;180.63;168.25;;;5.60;99.90;;;;;;12403145;28;20047;-79
2023/12/09 02:29:27;;;;;;;173.98;161.43;;;5.50;99.90;;;;;;12399371;28;20039;-79
2023/12/09 02:35:33;;;;;;;168.98;156.85;;;5.50;99.90;;;;;;12387626;28;20539;-79
2023/12/09 02:41:36;;;;;;;180.95;168.60;;;5.60;99.90;;;;;;12387515;28;20042;-79
2023/12/09 02:47:38;;;;;;;171.40;159.48;;;5.50;99.90;;;;;;12381113;28;20042;-80
2023/12/09 02:53:40;;;;;;;163.20;151.45;;;5.50;99.90;;;;;;12404424;28;20515;-80
2023/12/09 02:59:43;;;;;;;160.32;149.18;;;5.50;99.90;;;;;;12388382;28;20083;-78
2023/12/09 03:05:45;;;;;;;161.90;150.50;;;5.60;99.90;;;;;;12388993;28;20050;-80
2023/12/09 03:11:47;;;;;;;166.43;154.77;;;5.60;99.90;;;;;;12617551;28;20048;-80
2023/12/09 03:17:49;;;;;;;165.82;154.18;;;5.70;99.90;;;;;;12651974;28;20063;-80
2023/12/09 03:23:51;;;;;;;163.00;151.82;;;5.60;99.90;;;;;;12649261;28;20048;-79
2023/12/09 03:29:53;;;;;;;164.93;153.15;;;5.70;99.90;;;;;;12651400;28;20263;-80
2023/12/09 03:35:55;;;;;;;169.18;157.60;;;5.70;99.90;;;;;;12648352;28;20047;-80
2023/12/09 03:41:57;;;;;;;165.88;154.27;;;5.70;99.90;;;;;;12643521;28;20050;-80
2023/12/09 03:47:59;;;;;;;160.48;149.38;;;5.70;99.90;;;;;;12640778;28;20052;-80
2023/12/09 03:54:01;;;;;;;156.77;145.90;;;5.70;99.90;;;;;;12652989;28;20186;-79
2023/12/09 04:00:04;;;;;;;153.63;142.63;;;5.80;99.90;;;;;;12643306;28;20422;-79
2023/12/09 04:06:06;;;;;;;159.43;148.40;;;5.80;99.90;;;;;;12648882;28;20076;-79
2023/12/09 04:12:09;;;;;;;161.02;149.95;;;5.80;99.90;;;;;;12637223;28;20055;-79
2023/12/09 04:18:11;;;;;;;163.23;152.15;;;5.80;99.90;;;;;;12645589;28;20444;-79
2023/12/09 04:24:13;;;;;;;171.57;159.68;;;5.80;99.90;;;;;;12663883;28;20059;-80
2023/12/09 04:30:15;;;;;;;160.57;149.45;;;5.70;99.90;;;;;;12654233;28;22031;-79
2023/12/09 04:36:18;;;;;;;152.88;142.02;;;5.70;99.90;;;;;;12635170;28;20048;-78
2023/12/09 04:42:20;;;;;;;154.73;143.95;;;5.70;99.90;;;;;;12629596;28;20049;-79
2023/12/09 04:48:22;;;;;;;159.65;148.50;;;5.60;99.90;;;;;;12649649;28;20059;-78
2023/12/09 04:54:24;;;;;;;157.43;146.60;;;5.50;99.90;;;;;;12651568;28;20055;-78
2023/12/09 05:00:28;;;;;;;158.57;147.50;;;5.40;99.90;;;;;;12649840;28;20129;-81
2023/12/09 05:06:30;;;;;;;156.53;146.13;;;5.40;99.90;;;;;;12660626;28;20395;-80
2023/12/09 05:12:32;;;;;;;153.48;143.18;;;5.50;99.90;;;;;;12516241;28;20053;-79
2023/12/09 05:18:35;;;;;;;151.63;141.35;;;5.60;99.90;;;;;;12498685;28;20078;-79
2023/12/09 05:24:37;;;;;;;156.05;145.23;;;5.70;99.90;;;;;;12445081;28;20046;-79
2023/12/09 05:30:41;;;;;;;159.40;148.65;;;5.70;99.90;;;;;;12425801;28;20066;-80
2023/12/09 05:36:43;;;;;;;158.40;147.50;;;5.70;99.90;;;;;;12513989;28;20051;-81
2023/12/09 05:42:46;;;;;;;157.20;146.50;;;5.70;99.90;;;;;;12498775;28;20042;-79
2023/12/09 05:48:49;;;;;;;159.52;148.68;;;5.70;99.90;;;;;;12547894;28;20050;-80
2023/12/09 05:54:51;;;;;;;158.15;147.25;;;5.60;99.90;;;;;;12532301;28;20124;-80
2023/12/09 06:00:54;;;;;;;151.75;141.75;;;5.60;99.90;;;;;;12556749;28;20033;-80
2023/12/09 06:06:56;;;;;;;147.40;137.30;;;5.70;99.90;;;;;;12550708;28;20046;-81
2023/12/09 06:12:58;;;;;;;146.85;136.90;;;5.70;99.90;;;;;;12531928;28;20039;-82
2023/12/09 06:19:01;;;;;;;147.23;136.90;;;5.70;99.90;;;;;;12561650;28;20054;-79
2023/12/09 06:25:04;;;;;;;152.80;142.30;;;5.70;99.90;;;;;;12471004;28;20034;-82
2023/12/09 06:31:06;;;;;;;153.15;142.40;;;5.60;99.90;;;;;;12540309;28;20114;-80
2023/12/09 06:37:09;;;;;;;154.55;143.57;;;5.60;99.90;;;;;;12548970;28;20076;-81
2023/12/09 06:43:12;;;;;;;150.23;139.73;;;5.60;99.90;;;;;;12456161;28;20054;-80
2023/12/09 06:49:18;;;;;;;149.43;138.95;;;5.60;99.90;;;;;;12516065;28;20070;-81
2023/12/09 06:55:20;;;;;;;136.18;126.80;;;5.50;99.90;;;;;;12460501;28;20141;-79
2023/12/09 07:01:23;;;;;;;139.38;129.43;;;5.60;99.90;;;;;;12449358;28;20071;-80
2023/12/09 07:07:27;;;;;;;138.70;129.30;;;5.50;99.90;;;;;;12507590;28;20145;-80
2023/12/09 07:13:29;;;;;;;138.98;129.55;;;5.30;99.90;;;;;;12596376;28;20058;-79
2023/12/09 07:19:33;;;;;;;130.10;120.75;;;5.20;99.90;;;;;;12512333;28;20054;-78
2023/12/09 07:25:35;;;;;;;136.10;126.25;;;5.20;99.90;;;;;;12496823;28;20129;-79
2023/12/09 07:31:38;;;;;;;125.78;116.90;;;5.10;99.90;;;;;;12491245;28;20110;-80
2023/12/09 07:37:40;;;;;;;125.03;116.53;;;5.10;99.90;;;;;;12428732;28;20144;-79
2023/12/09 07:43:44;;;;;;;122.65;113.97;;;5.00;99.90;;;;;;12502032;28;20053;-81
2023/12/09 07:49:47;;;;;;;127.15;118.43;;;4.90;99.90;;;;;;12500709;28;20061;-79
2023/12/09 07:55:50;;;;;;;118.88;109.90;;;4.80;99.90;;;;;;12490988;28;20141;-81
2023/12/09 08:01:54;;;;;;;116.05;107.90;;;4.80;99.90;;;;;;12508517;28;20046;-79
2023/12/09 08:07:58;;;;;;;118.10;109.77;;;4.70;99.90;;;;;;12485766;28;20064;-80
2023/12/09 08:14:00;;;;;;;123.20;114.55;;;4.60;99.90;;;;;;12514128;28;20058;-80
2023/12/09 08:20:06;;;;;;;120.05;111.80;;;4.50;99.90;;;;;;12508506;28;20092;-80
2023/12/09 08:26:10;;;;;;;109.35;101.40;;;4.50;99.90;;;;;;12496289;28;20058;-79
2023/12/09 08:32:12;;;;;;;113.77;105.77;;;4.50;99.90;;;;;;12455358;27;20532;-77
2023/12/09 08:38:15;;;;;;;110.03;102.30;;;4.60;99.90;;;;;;12491451;28;20047;-78
2023/12/09 08:44:17;;;;;;;106.57;98.95;;;4.60;99.90;;;;;;12491166;28;20484;-79
2023/12/09 08:50:19;;;;;;;103.30;95.68;;;4.70;99.90;;;;;;12486340;28;20308;-79
2023/12/09 08:56:26;;;;;;;105.88;98.28;;;4.70;99.90;;;;;;12498920;28;20128;-79
2023/12/09 09:02:29;;;;;;;105.80;98.22;;;4.70;99.90;;;;;;12441003;28;20049;-81
2023/12/09 09:08:31;;;;;;;102.72;95.63;;;4.80;99.90;;;;;;12425241;28;20047;-79
2023/12/09 09:14:34;;;;;;;99.50;92.60;;;4.90;99.90;;;;;;12504932;28;20065;-78
2023/12/09 09:20:36;;;;;;;100.07;92.80;;;5.00;99.90;;;;;;12482294;28;20061;-79
2023/12/09 09:26:38;;;;;;;101.68;94.38;;;4.90;99.90;;;;;;12437342;28;20050;-79
2023/12/09 09:32:40;;;;;;;96.53;89.25;;;4.90;99.90;;;;;;12420533;28;20065;-79
2023/12/09 09:38:43;;;;;;;94.15;87.00;;;4.90;99.90;;;;;;12433056;28;20054;-79
2023/12/09 09:45:05;;;;;;;95.50;88.30;;;4.90;99.90;;;;;;12482636;28;20042;-79
2023/12/09 09:51:08;;;;;;;94.47;87.53;;;4.90;99.90;;;;;;12488731;28;20073;-79
2023/12/09 09:57:11;;;;;;;94.25;87.40;;;4.90;99.90;;;;;;12483366;28;20042;-78
2023/12/09 10:03:13;;;;;;;95.55;88.47;;;4.90;99.90;;;;;;12494293;28;20050;-79
2023/12/09 10:09:15;;;;;;;92.78;86.18;;;5.00;99.90;;;;;;12451790;28;20054;-78
2023/12/09 10:15:17;;;;;;;94.65;88.00;;;5.10;99.90;;;;;;12502360;28;20065;-78
2023/12/09 10:21:19;;;;;;;96.97;89.60;;;5.30;99.90;;;;;;12426786;28;20251;-79
2023/12/09 10:27:22;;;;;;;96.80;89.70;;;5.50;99.90;;;;;;12509936;28;20075;-78
2023/12/09 10:33:24;;;;;;;102.97;95.78;;;5.60;99.90;;;;;;12423337;28;20046;-78
2023/12/09 10:39:26;;;;;;;108.47;100.97;;;5.80;99.90;;;;;;12468822;28;20049;-78
2023/12/09 10:45:29;;;;;;;105.00;97.35;;;5.90;99.90;;;;;;12484419;28;20043;-78
2023/12/09 10:51:31;;;;;;;97.20;90.15;;;6.00;99.90;;;;;;12505101;28;20429;-78
2023/12/09 10:57:33;;;;;;;97.88;90.63;;;5.90;99.90;;;;;;12515194;28;20069;-77
2023/12/09 11:03:37;;;;;;;96.03;89.22;;;5.90;99.90;;;;;;12444541;28;20046;-77
2023/12/09 11:09:40;;;;;;;100.20;93.18;;;6.10;99.90;;;;;;12492316;28;20080;-77
2023/12/09 11:15:43;;;;;;;99.18;92.18;;;6.40;99.90;;;;;;12439579;28;20060;-78
2023/12/09 11:21:46;;;;;;;105.15;97.60;;;6.80;99.90;;;;;;12413381;28;20069;-79
2023/12/09 11:27:50;;;;;;;99.63;92.20;;;6.80;99.90;;;;;;12502252;28;20042;-78
2023/12/09 11:33:53;;;;;;;102.03;94.65;;;6.80;99.90;;;;;;12491611;28;20089;-78
2023/12/09 11:39:56;;;;;;;98.60;91.28;;;6.70;99.90;;;;;;12507975;28;20046;-78
2023/12/09 11:45:58;;;;;;;95.95;89.03;;;6.70;99.90;;;;;;12483693;28;20408;-80
2023/12/09 11:52:00;;;;;;;94.22;87.28;;;6.70;99.90;;;;;;12496077;28;20053;-79
2023/12/09 11:58:03;;;;;;;100.75;93.35;;;6.80;99.90;;;;;;12423051;28;20050;-79
2023/12/09 12:04:05;;;;;;;92.10;85.10;;;6.70;99.90;;;;;;12461034;28;20609;-81
2023/12/09 12:10:09;;;;;;;91.63;84.65;;;6.60;99.90;;;;;;12520445;28;20178;-79
2023/12/09 12:16:12;;;;;;;96.28;88.88;;;6.50;99.90;;;;;;12529953;28;20551;-81
2023/12/09 12:22:14;;;;;;;99.45;91.75;;;6.50;99.90;;;;;;12439830;28;20180;-80
2023/12/09 12:28:16;;;;;;;96.28;88.78;;;6.40;99.90;;;;;;12508322;28;20046;-80
2023/12/09 12:34:19;;;;;;;98.55;90.60;;;6.40;99.90;;;;;;12516525;28;20548;-80
2023/12/09 12:40:22;;;;;;;102.05;94.20;;;6.40;99.90;;;;;;12482095;28;20106;-80
2023/12/09 12:46:26;;;;;;;102.43;94.43;;;6.40;99.90;;;;;;12433515;28;20488;-81
2023/12/09 12:52:28;;;;;;;100.53;92.53;;;6.50;99.90;;;;;;12433082;28;20128;-80
2023/12/09 12:58:31;;;;;;;99.57;91.72;;;6.50;99.90;;;;;;12497167;28;20054;-81
2023/12/09 13:04:34;;;;;;;97.35;89.97;;;6.50;99.90;;;;;;12437036;28;20057;-80
2023/12/09 13:10:37;;;;;;;98.10;90.80;;;6.50;99.90;;;;;;12495541;28;20431;-81
2023/12/09 13:16:39;;;;;;;91.63;84.70;;;6.50;99.90;;;;;;12492878;28;20057;-81
2023/12/09 13:22:42;;;;;;;95.68;88.38;;;6.50;99.90;;;;;;12499444;28;20038;-80
2023/12/09 13:28:45;;;;;;;98.28;90.78;;;6.50;99.90;;;;;;12481329;28;20050;-80
2023/12/09 13:34:47;;;;;;;92.95;85.78;;;6.40;99.90;;;;;;12497786;28;20305;-80
2023/12/09 13:40:49;;;;;;;93.20;86.10;;;6.40;99.90;;;;;;12499633;28;20060;-79
2023/12/09 13:46:51;;;;;;;93.43;86.20;;;6.30;99.90;;;;;;12503228;28;20049;-80
2023/12/09 13:52:52;;;;;;;92.57;84.97;;;6.30;99.90;;;;;;12440648;28;20053;-80
2023/12/09 13:58:54;;;;;;;93.90;87.20;;;6.40;99.90;;;;;;12505687;28;20050;-79
2023/12/09 14:04:56;;;;;;;95.15;88.15;;;6.30;99.90;;;;;;12486404;28;20408;-80
2023/12/09 14:11:00;;;;;;;95.10;88.00;;;6.40;99.90;;;;;;12463112;28;20488;-82
2023/12/09 14:17:02;;;;;;;93.97;87.18;;;6.40;99.90;;;;;;12483623;28;20062;-80
2023/12/09 14:23:04;;;;;;;96.07;89.13;;;6.40;99.90;;;;;;12505478;28;20041;-81
2023/12/09 14:29:06;;;;;;;93.75;86.43;;;6.50;99.90;;;;;;12512832;28;20426;-80
2023/12/09 14:35:08;;;;;;;93.80;86.80;;;6.50;99.90;;;;;;12527023;28;20050;-81
2023/12/09 14:41:11;;;;;;;93.38;86.22;;;6.60;99.90;;;;;;12507602;28;20055;-80
2023/12/09 14:47:14;;;;;;;91.32;84.13;;;6.60;99.90;;;;;;12442746;28;20063;-80
2023/12/09 14:53:17;;;;;;;89.80;82.82;;;6.60;99.90;;;;;;12437898;28;20105;-81
2023/12/09 14:59:20;;;;;;;87.68;80.68;;;6.70;99.90;;;;;;12427154;28;20076;-80
2023/12/09 15:05:22;;;;;;;89.50;82.10;;;6.80;99.90;;;;;;12502867;28;20468;-80
2023/12/09 15:11:24;;;;;;;87.50;80.25;;;6.90;99.90;;;;;;12509153;28;20064;-80
2023/12/09 15:17:26;;;;;;;85.80;79.10;;;6.90;99.90;;;;;;12485046;28;20073;-80
2023/12/09 15:23:28;;;;;;;87.43;80.35;;;6.90;99.90;;;;;;12535958;28;20046;-80
2023/12/09 15:29:31;;;;;;;88.13;81.13;;;6.80;99.90;;;;;;12509243;28;20046;-81
2023/12/09 15:35:33;;;;;;;89.45;82.18;;;6.80;99.90;;;;;;12443463;28;20045;-81
2023/12/09 15:41:34;;;;;;;85.90;78.80;;;6.80;99.90;;;;;;12578686;28;20054;-81
2023/12/09 15:47:36;;;;;;;84.93;78.13;;;6.70;99.90;;;;;;12496285;28;20050;-79
2023/12/09 15:53:39;;;;;;;92.20;84.18;;;6.60;99.90;;;;;;12448095;28;20050;-80
2023/12/09 15:59:41;;;;;;;85.93;79.20;;;6.50;99.90;;;;;;12510695;28;20489;-81
2023/12/09 16:05:43;;;;;;;94.72;87.45;;;6.50;99.90;;;;;;12524195;28;20050;-80
2023/12/09 16:11:45;;;;;;;90.43;83.43;;;6.40;99.90;;;;;;12524272;28;20074;-80
2023/12/09 16:17:47;;;;;;;94.63;87.72;;;6.40;99.90;;;;;;12527194;28;20053;-81
2023/12/09 16:23:50;;;;;;;103.28;95.43;;;6.30;99.90;;;;;;12440731;28;20096;-80
2023/12/09 16:29:54;;;;;;;96.82;89.75;;;6.30;99.90;;;;;;12430378;28;20400;-81
2023/12/09 16:35:56;;;;;;;105.93;98.32;;;6.30;99.90;;;;;;12472794;28;20054;-80
2023/12/09 16:41:58;;;;;;;107.88;100.22;;;6.20;99.90;;;;;;12501917;28;20082;-81
2023/12/09 16:48:01;;;;;;;96.25;89.28;;;6.20;99.90;;;;;;12506117;28;20048;-78
2023/12/09 16:54:04;;;;;;;92.20;85.28;;;6.20;99.90;;;;;;12493396;28;20598;-79
2023/12/09 17:00:07;;;;;;;91.63;85.05;;;6.30;99.90;;;;;;12456542;28;20056;-78
2023/12/09 17:06:09;;;;;;;97.10;90.40;;;6.20;99.90;;;;;;12498087;28;20050;-79
2023/12/09 17:12:11;;;;;;;89.15;82.75;;;6.30;99.90;;;;;;12434254;28;20058;-79
2023/12/09 17:18:13;;;;;;;90.60;84.15;;;6.30;99.90;;;;;;12434087;28;20099;-79
2023/12/09 17:24:15;;;;;;;94.00;87.40;;;6.20;99.90;;;;;;12503743;28;20511;-78
2023/12/09 17:30:17;;;;;;;90.55;84.38;;;6.20;99.90;;;;;;12504448;28;20046;-79
2023/12/09 17:36:22;;;;;;;92.18;85.43;;;6.20;99.90;;;;;;12502816;28;20054;-79
2023/12/09 17:42:25;;;;;;;90.15;84.10;;;6.20;99.90;;;;;;12505164;28;20453;-79
2023/12/09 17:48:27;;;;;;;95.00;88.30;;;6.20;99.90;;;;;;12436852;28;20046;-80
2023/12/09 17:54:29;;;;;;;111.55;103.95;;;6.20;99.90;;;;;;12491520;28;20054;-79
2023/12/09 18:00:31;;;;;;;109.28;101.78;;;6.00;99.90;;;;;;12523420;28;20072;-80
2023/12/09 18:06:34;;;;;;;108.82;101.50;;;6.10;99.90;;;;;;12501113;28;20046;-78
2023/12/09 18:12:36;;;;;;;108.65;101.55;;;6.20;99.90;;;;;;12519658;28;20109;-79
2023/12/09 18:18:38;;;;;;;116.78;109.22;;;6.10;99.90;;;;;;12448037;28;20046;-80
2023/12/09 18:24:40;;;;;;;114.53;106.97;;;6.10;99.90;;;;;;12525957;28;20036;-78
2023/12/09 18:30:43;;;;;;;109.30;102.13;;;6.10;99.90;;;;;;12535125;28;20062;-82
2023/12/09 18:36:45;;;;;;;114.65;107.13;;;6.10;99.90;;;;;;12523337;28;20461;-81
2023/12/09 18:42:47;;;;;;;113.35;106.05;;;6.00;99.90;;;;;;12519632;28;20070;-82
2023/12/09 18:48:53;;;;;;;117.65;110.18;;;6.00;99.90;;;;;;12520162;28;20069;-80
2023/12/09 18:54:55;;;;;;;124.57;116.70;;;5.90;99.90;;;;;;12544457;28;20042;-84
2023/12/09 19:00:57;;;;;;;118.55;111.18;;;5.80;99.90;;;;;;12461471;28;20616;-82
2023/12/09 19:07:11;;;;;;;117.13;109.83;;;5.80;99.90;;;;;;12499987;28;20054;-82
2023/12/09 19:13:14;;;;;;;118.38;110.78;;;5.90;99.90;;;;;;12466975;28;20038;-82
2023/12/09 19:19:16;;;;;;;126.68;118.85;;;5.90;99.90;;;;;;12444996;28;20061;-83
2023/12/09 19:25:21;;;;;;;126.30;118.32;;;5.80;99.90;;;;;;12527298;28;20095;-80
2023/12/09 19:31:23;;;;;;;136.52;128.00;;;5.70;99.90;;;;;;12521899;28;20053;-79
2023/12/09 19:37:25;;;;;;;125.95;118.07;;;5.70;99.90;;;;;;12446924;28;20125;-80
2023/12/09 19:43:27;;;;;;;128.70;120.63;;;5.60;99.90;;;;;;12511910;28;20038;-81
2023/12/09 19:49:32;;;;;;;125.90;117.97;;;5.60;99.90;;;;;;12457397;28;20053;-80
2023/12/09 19:55:35;;;;;;;120.93;113.35;;;5.60;99.90;;;;;;12470383;28;20057;-80
2023/12/09 20:01:36;;;;;;;120.03;112.32;;;5.60;99.90;;;;;;12462397;28;20042;-79
2023/12/09 20:07:39;;;;;;;119.82;112.25;;;5.50;99.90;;;;;;12512501;28;20058;-81
2023/12/09 20:13:41;;;;;;;139.65;130.85;;;5.50;99.90;;;;;;12451923;28;20062;-80
2023/12/09 20:19:43;;;;;;;149.75;140.45;;;5.60;99.90;;;;;;12504996;28;20047;-82
2023/12/09 20:25:45;;;;;;;146.75;137.60;;;5.50;99.90;;;;;;12535441;28;20043;-82
2023/12/09 20:31:46;;;;;;;151.15;141.90;;;5.60;99.90;;;;;;12554055;28;20231;-80
2023/12/09 20:37:49;;;;;;;164.25;154.43;;;5.60;99.90;;;;;;12462596;28;20050;-82
2023/12/09 20:43:51;;;;;;;188.32;177.30;;;5.70;99.90;;;;;;12527770;28;20084;-81
2023/12/09 20:49:54;;;;;;;175.07;164.68;;;5.70;99.90;;;;;;12532252;28;20050;-81
2023/12/09 20:55:56;;;;;;;167.90;157.77;;;5.70;99.90;;;;;;12539090;28;20158;-82
2023/12/09 21:01:57;;;;;;;175.45;165.00;;;5.80;99.90;;;;;;12533673;28;20046;-81
2023/12/09 21:07:59;;;;;;;177.70;167.20;;;5.80;99.90;;;;;;12498276;28;20053;-82
2023/12/09 21:14:03;;;;;;;193.77;182.55;;;5.90;99.90;;;;;;12466562;28;20077;-80
2023/12/09 21:20:07;;;;;;;199.07;187.65;;;5.90;99.90;;;;;;12518825;28;20054;-82
2023/12/09 21:26:10;;;;;;;206.25;194.52;;;5.90;99.90;;;;;;12451978;28;20089;-81
2023/12/09 21:32:11;;;;;;;202.27;190.57;;;6.00;99.90;;;;;;12551907;28;20038;-83
2023/12/09 21:38:13;;;;;;;206.38;194.38;;;6.00;99.90;;;;;;12471832;28;20033;-81
2023/12/09 21:44:16;;;;;;;212.25;200.15;;;6.10;99.90;;;;;;12467038;28;20496;-81
2023/12/09 21:50:20;;;;;;;220.77;208.40;;;6.10;99.90;;;;;;12586645;27;20093;-81
2023/12/09 21:56:23;;;;;;;230.30;217.43;;;6.30;99.90;;;;;;12557887;28;20026;-82
2023/12/09 22:02:26;;;;;;;234.57;221.45;;;6.30;99.90;;;;;;12548772;28;20046;-81
2023/12/09 22:08:29;;;;;;;237.73;224.57;;;6.50;99.90;;;;;;12485855;28;20030;-82
2023/12/09 22:14:31;;;;;;;248.05;234.30;;;6.70;99.90;;;;;;12557903;22;1110070;-35
2023/12/09 22:20:33;;;;;;;253.77;239.48;;;6.70;99.90;;;;;;12609341;28;20498;-34
2023/12/09 22:26:42;;;;;;;248.15;234.32;;;6.90;99.90;;;;;;12611260;28;20048;-34
2023/12/09 22:32:44;;;;;;;239.50;225.93;;;7.00;99.90;;;;;;12617550;28;20048;-35
2023/12/09 22:38:46;;;;;;;239.82;225.82;;;7.10;99.90;;;;;;12600668;28;20754;-35
2023/12/09 22:44:49;;;;;;;250.30;235.17;;;7.30;99.90;;;;;;12587140;28;20045;-35
2023/12/09 22:50:51;;;;;;;239.75;225.35;;;7.50;99.90;;;;;;12611591;28;20053;-35
2023/12/09 22:56:55;;;;;;;249.10;234.27;;;7.60;99.90;;;;;;12616564;28;20528;-35
2023/12/09 23:03:01;;;;;;;255.80;239.88;;;7.70;99.90;;;;;;12621822;28;20055;-35
2023/12/09 23:09:04;;;;;;;203.77;190.50;;;7.80;99.90;;;;;;12618112;28;20056;-35
2023/12/09 23:15:07;;;;;;;202.82;189.90;;;7.80;99.90;;;;;;12607807;28;20063;-35
2023/12/09 23:21:09;;;;;;;206.20;192.27;;;7.90;99.90;;;;;;12616621;28;20059;-35
2023/12/09 23:27:11;;;;;;;191.40;178.52;;;7.90;99.90;;;;;;12597985;28;20522;-35
2023/12/09 23:33:13;;;;;;;191.18;177.82;;;7.90;99.90;;;;;;12603342;28;20481;-35
2023/12/09 23:39:15;;;;;;;160.90;148.98;;;8.00;99.90;;;;;;12604784;28;20052;-35
2023/12/09 23:45:17;;;;;;;167.07;155.23;;;8.10;99.90;;;;;;12626271;28;20504;-35
2023/12/09 23:51:19;;;;;;;153.73;142.55;;;8.10;99.90;;;;;;12622254;28;20052;-35
2023/12/09 23:57:21;;;;;;;156.32;144.48;;;8.20;99.90;;;;;;12602776;28;20055;-35
